createdAt,value
2022-08-21T00:01:32.734Z,97958.16
2022-08-21T00:03:59.060Z,97948.19
2022-08-21T00:06:25.356Z,97946.28
2022-08-21T00:08:51.856Z,97949.50
2022-08-21T00:11:18.338Z,97949.22
2022-08-21T00:13:44.631Z,97948.94
2022-08-21T00:16:11.053Z,97949.47
2022-08-21T00:18:37.384Z,97946.75
2022-08-21T00:21:03.653Z,97946.47
2022-08-21T00:23:30.023Z,97950.50
2022-08-21T00:25:56.284Z,97948.31
2022-08-21T00:28:22.548Z,97944.59
2022-08-21T00:30:48.804Z,97950.44
2022-08-21T00:33:15.098Z,97942.13
2022-08-21T00:35:42.594Z,97939.97
2022-08-21T00:38:08.923Z,97935.13
2022-08-21T00:40:35.198Z,97942.09
2022-08-21T00:43:01.578Z,97933.75
2022-08-21T00:45:28.174Z,97933.72
2022-08-21T00:47:54.663Z,97931.59
2022-08-21T00:50:21.832Z,97927.25
2022-08-21T00:52:48.657Z,97929.91
2022-08-21T00:55:15.272Z,97934.97
2022-08-21T00:57:41.606Z,97935.50
2022-08-21T01:00:07.867Z,97933.56
2022-08-21T01:02:34.462Z,97928.47
2022-08-21T01:05:00.750Z,97937.84
2022-08-21T01:07:29.626Z,97930.31
2022-08-21T01:09:55.927Z,97930.28
2022-08-21T01:12:22.623Z,97932.66
2022-08-21T01:14:51.031Z,97933.19
2022-08-21T01:17:17.332Z,97941.75
2022-08-21T01:19:43.592Z,97941.72
2022-08-21T01:22:09.908Z,97932.31
2022-08-21T01:24:36.212Z,97934.44
2022-08-21T01:27:02.543Z,97932.28
2022-08-21T01:29:28.980Z,97933.84
2022-08-21T01:31:55.215Z,97931.13
2022-08-21T01:34:21.446Z,97929.78
2022-08-21T01:36:47.674Z,97927.88
2022-08-21T01:39:14.116Z,97932.66
2022-08-21T01:41:40.421Z,97933.72
2022-08-21T01:44:06.778Z,97934.25
2022-08-21T01:46:32.998Z,97933.69
2022-08-21T01:48:59.330Z,97929.38
2022-08-21T01:51:25.586Z,97930.47
2022-08-21T01:53:51.827Z,97929.91
2022-08-21T01:56:18.064Z,97932.03
2022-08-21T01:58:44.487Z,97934.16
2022-08-21T02:01:10.844Z,97929.31
2022-08-21T02:03:37.144Z,97926.06
2022-08-21T02:06:03.580Z,97928.22
2022-08-21T02:08:29.820Z,97927.94
2022-08-21T02:10:56.201Z,97921.16
2022-08-21T02:13:23.868Z,97920.63
2022-08-21T02:15:50.129Z,97919.28
2022-08-21T02:18:16.498Z,97914.16
2022-08-21T02:20:43.312Z,97917.34
2022-08-21T02:23:09.643Z,97910.88
2022-08-21T02:25:39.744Z,97917.56
2022-08-21T02:28:06.031Z,97910.03
2022-08-21T02:30:32.310Z,97915.09
2022-08-21T02:32:58.623Z,97915.56
2022-08-21T02:35:25.069Z,97911.56
2022-08-21T02:37:51.667Z,97909.13
2022-08-21T02:40:17.967Z,97912.28
2022-08-21T02:42:44.382Z,97906.91
2022-08-21T02:45:10.777Z,97895.56
2022-08-21T02:47:37.370Z,97907.09
2022-08-21T02:50:03.669Z,97909.47
2022-08-21T02:52:30.191Z,97903.81
2022-08-21T02:54:56.473Z,97913.16
2022-08-21T02:57:22.715Z,97907.53
2022-08-21T02:59:48.969Z,97901.88
2022-08-21T03:02:17.574Z,97898.88
2022-08-21T03:04:46.644Z,97893.22
2022-08-21T03:07:13.204Z,97901.72
2022-08-21T03:09:39.552Z,97897.16
2022-08-21T03:12:17.141Z,97890.44
2022-08-21T03:14:43.387Z,97895.25
2022-08-21T03:17:09.741Z,97904.53
2022-08-21T03:19:36.156Z,97897.81
2022-08-21T03:22:02.416Z,97900.16
2022-08-21T03:24:29.746Z,97900.41
2022-08-21T03:26:56.055Z,97898.25
2022-08-21T03:29:22.655Z,97901.16
2022-08-21T03:31:48.917Z,97899.78
2022-08-21T03:34:15.575Z,97902.97
2022-08-21T03:36:41.808Z,97913.66
2022-08-21T03:39:08.046Z,97907.50
2022-08-21T03:41:34.319Z,97910.41
2022-08-21T03:44:00.724Z,97917.59
2022-08-21T03:46:27.111Z,97920.28
2022-08-21T03:48:53.357Z,97917.84
2022-08-21T03:51:19.640Z,97911.72
2022-08-21T03:53:46.241Z,97910.34
2022-08-21T03:56:12.530Z,97912.97
2022-08-21T03:58:38.768Z,97918.56
2022-08-21T04:01:05.065Z,97924.16
2022-08-21T04:03:31.349Z,97938.78
2022-08-21T04:05:57.724Z,97943.31
2022-08-21T04:08:24.124Z,97943.31
2022-08-21T04:10:50.464Z,97952.38
2022-08-21T04:13:16.793Z,97949.16
2022-08-21T04:15:43.254Z,97941.97
2022-08-21T04:18:09.514Z,97951.00
2022-08-21T04:20:35.945Z,97948.59
2022-08-21T04:23:02.437Z,97956.84
2022-08-21T04:25:28.725Z,97955.25
2022-08-21T04:27:54.942Z,97958.16
2022-08-21T04:30:21.199Z,97962.94
2022-08-21T04:32:54.463Z,97953.53
2022-08-21T04:35:21.997Z,97962.63
2022-08-21T04:37:48.263Z,97965.53
2022-08-21T04:40:14.628Z,97960.66
2022-08-21T04:42:40.954Z,97953.72
2022-08-21T04:45:07.257Z,97967.31
2022-08-21T04:47:41.751Z,97965.69
2022-08-21T04:50:19.380Z,97967.00
2022-08-21T04:52:45.704Z,97963.50
2022-08-21T04:55:11.948Z,97968.03
2022-08-21T04:57:48.298Z,97969.91
2022-08-21T05:00:15.602Z,97968.84
2022-08-21T05:02:41.919Z,97975.56
2022-08-21T05:05:09.377Z,97977.25
2022-08-21T05:07:42.163Z,97980.22
2022-08-21T05:10:09.860Z,97970.13
2022-08-21T05:12:38.662Z,97978.53
2022-08-21T05:15:04.925Z,97982.84
2022-08-21T05:17:31.213Z,97987.59
2022-08-21T05:19:57.490Z,97989.28
2022-08-21T05:22:23.757Z,97994.22
2022-08-21T05:24:50.168Z,97986.19
2022-08-21T05:27:17.780Z,97993.09
2022-08-21T05:29:44.207Z,97989.91
2022-08-21T05:32:10.433Z,97988.56
2022-08-21T05:34:36.734Z,97993.66
2022-08-21T05:37:07.004Z,97991.03
2022-08-21T05:40:05.410Z,97986.03
2022-08-21T05:42:20.314Z,97989.25
2022-08-21T05:44:46.693Z,97995.72
2022-08-21T05:47:15.153Z,97991.75
2022-08-21T05:49:41.512Z,97997.66
2022-08-21T05:52:07.876Z,98004.59
2022-08-21T05:54:34.146Z,98004.13
2022-08-21T05:57:03.444Z,98002.59
2022-08-21T05:59:29.953Z,98002.66
2022-08-21T06:01:56.288Z,97994.69
2022-08-21T06:04:25.219Z,98003.97
2022-08-21T06:06:51.452Z,98000.00
2022-08-21T06:09:17.816Z,98005.06
2022-08-21T06:11:44.253Z,98008.50
2022-08-21T06:14:10.519Z,98002.22
2022-08-21T06:16:36.864Z,97999.78
2022-08-21T06:19:05.173Z,98001.00
2022-08-21T06:21:31.449Z,98015.50
2022-08-21T06:23:57.736Z,98008.19
2022-08-21T06:26:24.073Z,98008.66
2022-08-21T06:28:50.447Z,98013.59
2022-08-21T06:31:16.728Z,98026.56
2022-08-21T06:33:42.991Z,98021.81
2022-08-21T06:36:09.441Z,98022.44
2022-08-21T06:38:35.718Z,98019.88
2022-08-21T06:41:04.224Z,98010.25
2022-08-21T06:43:39.357Z,98011.09
2022-08-21T06:46:06.524Z,98017.31
2022-08-21T06:48:32.826Z,98019.19
2022-08-21T06:50:59.320Z,98006.88
2022-08-21T06:53:25.620Z,98006.06
2022-08-21T06:55:51.918Z,98010.66
2022-08-21T06:58:18.456Z,98007.13
2022-08-21T07:00:44.780Z,98017.88
2022-08-21T07:03:11.351Z,98009.78
2022-08-21T07:05:37.643Z,98019.44
2022-08-21T07:08:03.873Z,98022.06
2022-08-21T07:10:30.303Z,98016.63
2022-08-21T07:13:00.963Z,98023.53
2022-08-21T07:15:27.902Z,98023.25
2022-08-21T07:17:54.336Z,98018.56
2022-08-21T07:20:20.638Z,98023.84
2022-08-21T07:22:49.527Z,98033.44
2022-08-21T07:25:15.770Z,98037.69
2022-08-21T07:27:42.165Z,98013.38
2022-08-21T07:30:08.550Z,98041.97
2022-08-21T07:32:35.071Z,98053.88
2022-08-21T07:35:01.419Z,98050.69
2022-08-21T07:37:27.710Z,98059.91
2022-08-21T07:39:54.087Z,98065.06
2022-08-21T07:42:20.452Z,98071.06
2022-08-21T07:44:46.784Z,98066.75
2022-08-21T07:47:16.070Z,98072.47
2022-08-21T07:49:55.961Z,98073.00
2022-08-21T07:52:22.245Z,98074.66
2022-08-21T07:54:48.605Z,98077.63
2022-08-21T07:57:15.058Z,98082.50
2022-08-21T07:59:45.021Z,98087.88
2022-08-21T08:02:11.262Z,98096.94
2022-08-21T08:04:37.602Z,98092.75
2022-08-21T08:07:16.845Z,98092.69
2022-08-21T08:09:43.161Z,98093.56
2022-08-21T08:12:09.547Z,98103.56
2022-08-21T08:14:36.065Z,98106.84
2022-08-21T08:17:02.316Z,98106.06
2022-08-21T08:19:28.585Z,98107.22
2022-08-21T08:21:54.845Z,98112.75
2022-08-21T08:24:21.214Z,98108.06
2022-08-21T08:26:53.509Z,98099.81
2022-08-21T08:29:20.145Z,98102.63
2022-08-21T08:31:46.763Z,98101.91
2022-08-21T08:34:13.046Z,98097.03
2022-08-21T08:36:55.571Z,98099.50
2022-08-21T08:39:26.992Z,98097.94
2022-08-21T08:41:57.963Z,98088.84
2022-08-21T08:44:25.154Z,98093.97
2022-08-21T08:46:57.583Z,98085.00
2022-08-21T08:49:23.931Z,98078.31
2022-08-21T08:51:50.629Z,98077.50
2022-08-21T08:54:19.558Z,98070.28
2022-08-21T08:56:45.892Z,98060.22
2022-08-21T08:59:12.342Z,98041.63
2022-08-21T09:01:41.490Z,98021.91
2022-08-21T09:04:07.858Z,98003.22
2022-08-21T09:06:34.233Z,97948.28
2022-08-21T09:09:00.668Z,97921.78
2022-08-21T09:11:27.040Z,97909.56
2022-08-21T09:13:53.310Z,97904.00
2022-08-21T09:16:19.674Z,97904.91
2022-08-21T09:18:46.851Z,97901.84
2022-08-21T09:21:13.281Z,97896.56
2022-08-21T09:23:39.559Z,97904.19
2022-08-21T09:26:05.875Z,97906.41
2022-08-21T09:28:32.430Z,97899.41
2022-08-21T09:30:58.753Z,97900.97
2022-08-21T09:33:25.184Z,97898.75
2022-08-21T09:35:51.466Z,97898.13
2022-08-21T09:38:17.752Z,97898.94
2022-08-21T09:40:45.075Z,97901.47
2022-08-21T09:43:11.422Z,97892.03
2022-08-21T09:45:37.721Z,97892.66
2022-08-21T09:48:04.106Z,97894.88
2022-08-21T09:50:30.370Z,97886.56
2022-08-21T09:52:56.738Z,97880.75
2022-08-21T09:55:24.137Z,97882.69
2022-08-21T09:57:50.809Z,97878.53
2022-08-21T10:00:17.149Z,97872.31
2022-08-21T10:02:43.482Z,97868.81
2022-08-21T10:05:10.140Z,97861.78
2022-08-21T10:07:36.467Z,97874.25
2022-08-21T10:10:02.790Z,97874.25
2022-08-21T10:12:29.141Z,97869.41
2022-08-21T10:14:55.544Z,97865.25
2022-08-21T10:17:21.844Z,97859.97
2022-08-21T10:19:48.301Z,97854.66
2022-08-21T10:22:14.626Z,97852.28
2022-08-21T10:24:41.098Z,97839.00
2022-08-21T10:27:07.472Z,97841.44
2022-08-21T10:29:34.035Z,97834.41
2022-08-21T10:32:00.446Z,97840.25
2022-08-21T10:34:37.454Z,97840.06
2022-08-21T10:37:08.185Z,97836.91
2022-08-21T10:39:37.371Z,97837.41
2022-08-21T10:42:03.740Z,97840.63
2022-08-21T10:44:30.008Z,97837.91
2022-08-21T10:46:56.289Z,97830.88
2022-08-21T10:49:22.614Z,97838.72
2022-08-21T10:51:48.951Z,97838.41
2022-08-21T10:54:16.065Z,97834.56
2022-08-21T10:56:44.097Z,97825.28
2022-08-21T10:59:10.654Z,97816.78
2022-08-21T11:01:36.972Z,97817.84
2022-08-21T11:04:03.396Z,97818.34
2022-08-21T11:06:31.942Z,97815.63
2022-08-21T11:08:58.203Z,97816.72
2022-08-21T11:11:24.463Z,97810.75
2022-08-21T11:13:54.479Z,97806.63
2022-08-21T11:16:20.790Z,97810.03
2022-08-21T11:18:47.086Z,97815.94
2022-08-21T11:21:13.531Z,97810.22
2022-08-21T11:23:39.832Z,97812.59
2022-08-21T11:26:06.164Z,97812.28
2022-08-21T11:28:33.018Z,97811.19
2022-08-21T11:30:59.442Z,97808.50
2022-08-21T11:33:25.775Z,97804.97
2022-08-21T11:35:52.318Z,97806.56
2022-08-21T11:38:18.664Z,97809.28
2022-08-21T11:40:47.113Z,97804.66
2022-08-21T11:43:13.446Z,97797.34
2022-08-21T11:45:40.150Z,97810.09
2022-08-21T11:48:06.509Z,97800.38
2022-08-21T11:50:35.022Z,97792.84
2022-08-21T11:53:02.988Z,97797.16
2022-08-21T11:55:29.434Z,97790.75
2022-08-21T11:57:57.126Z,97781.50
2022-08-21T12:00:23.635Z,97788.53
2022-08-21T12:02:50.108Z,97788.22
2022-08-21T12:05:19.256Z,97787.09
2022-08-21T12:07:48.819Z,97791.13
2022-08-21T12:10:17.638Z,97787.91
2022-08-21T12:12:44.002Z,97787.91
2022-08-21T12:15:10.674Z,97776.56
2022-08-21T12:17:37.330Z,97785.50
2022-08-21T12:20:03.735Z,97786.00
2022-08-21T12:22:30.179Z,97784.13
2022-08-21T12:24:56.445Z,97781.88
2022-08-21T12:27:22.957Z,97780.78
2022-08-21T12:29:49.329Z,97777.22
2022-08-21T12:32:15.825Z,97768.72
2022-08-21T12:34:42.160Z,97770.94
2022-08-21T12:37:08.560Z,97774.13
2022-08-21T12:39:35.375Z,97779.56
2022-08-21T12:42:02.356Z,97781.44
2022-08-21T12:47:14.953Z,97776.34
2022-08-21T12:49:41.310Z,97779.38
2022-08-21T12:52:07.677Z,97780.19
2022-08-21T12:54:34.023Z,97776.66
2022-08-21T12:57:00.364Z,97783.66
2022-08-21T12:59:26.689Z,97777.47
2022-08-21T13:01:57.029Z,97774.25
2022-08-21T13:04:26.020Z,97782.38
2022-08-21T13:06:52.376Z,97774.56
2022-08-21T13:09:21.754Z,97776.47
2022-08-21T13:11:48.159Z,97776.75
2022-08-21T13:14:17.306Z,97779.19
2022-08-21T13:16:43.814Z,97782.38
2022-08-21T13:19:10.319Z,97781.59
2022-08-21T13:21:36.651Z,97772.66
2022-08-21T13:24:14.781Z,97783.19
2022-08-21T13:26:49.323Z,97781.25
2022-08-21T13:29:15.594Z,97781.59
2022-08-21T13:31:42.051Z,97767.44
2022-08-21T13:34:08.388Z,97780.78
2022-08-21T13:36:34.786Z,97772.66
2022-08-21T13:39:01.185Z,97776.97
2022-08-21T13:41:27.695Z,97778.56
2022-08-21T13:43:54.016Z,97778.06
2022-08-21T13:46:20.323Z,97776.16
2022-08-21T13:48:46.881Z,97773.44
2022-08-21T13:51:13.867Z,97741.81
2022-08-21T13:53:40.290Z,97771.06
2022-08-21T13:56:06.778Z,97773.78
2022-08-21T13:58:33.087Z,97781.59
2022-08-21T14:00:59.520Z,97771.56
2022-08-21T14:03:25.831Z,97773.16
2022-08-21T14:05:52.189Z,97775.53
2022-08-21T14:08:18.523Z,97766.63
2022-08-21T14:10:44.833Z,97769.34
2022-08-21T14:13:11.260Z,97769.03
2022-08-21T14:15:37.617Z,97769.34
2022-08-21T14:18:03.924Z,97772.66
2022-08-21T14:20:30.389Z,97762.94
2022-08-21T14:22:56.819Z,97763.75
2022-08-21T14:25:25.061Z,97771.06
2022-08-21T14:27:51.536Z,97765.63
2022-08-21T14:30:17.858Z,97771.56
2022-08-21T14:32:44.398Z,97768.34
2022-08-21T14:35:12.371Z,97772.66
2022-08-21T14:37:38.655Z,97766.75
2022-08-21T14:40:05.039Z,97767.81
2022-08-21T14:42:32.994Z,97770.53
2022-08-21T14:44:59.276Z,97763.53
2022-08-21T14:47:25.587Z,97762.53
2022-08-21T14:49:51.921Z,97768.75
2022-08-21T14:52:18.186Z,97772.25
2022-08-21T14:54:44.453Z,97764.13
2022-08-21T14:57:10.827Z,97770.34
2022-08-21T14:59:37.108Z,97763.34
2022-08-21T15:02:03.348Z,97761.72
2022-08-21T15:04:29.677Z,97769.06
2022-08-21T15:06:56.042Z,97765.25
2022-08-21T15:09:22.517Z,97767.16
2022-08-21T15:11:48.812Z,97758.56
2022-08-21T15:14:15.172Z,97756.63
2022-08-21T15:16:41.438Z,97760.44
2022-08-21T15:19:07.804Z,97754.22
2022-08-21T15:21:36.177Z,97756.13
2022-08-21T15:24:02.474Z,97766.19
2022-08-21T15:26:28.872Z,97767.28
2022-08-21T15:28:55.184Z,97761.06
2022-08-21T15:31:21.567Z,97744.56
2022-08-21T15:33:47.941Z,97760.59
2022-08-21T15:36:14.228Z,97757.38
2022-08-21T15:38:40.520Z,97762.78
2022-08-21T15:41:06.904Z,97762.28
2022-08-21T15:43:33.190Z,97757.19
2022-08-21T15:45:59.497Z,97766.13
2022-08-21T15:48:25.891Z,97766.13
2022-08-21T15:50:52.245Z,97771.03
2022-08-21T15:53:18.725Z,97764.00
2022-08-21T15:55:45.097Z,97751.09
2022-08-21T15:58:11.415Z,97755.69
2022-08-21T16:00:37.870Z,97753.31
2022-08-21T16:03:04.156Z,97759.03
2022-08-21T16:05:30.725Z,97749.31
2022-08-21T16:07:57.035Z,97750.41
2022-08-21T16:10:23.431Z,97747.19
2022-08-21T16:12:54.363Z,97745.63
2022-08-21T16:15:20.799Z,97740.81
2022-08-21T16:17:47.391Z,97741.91
2022-08-21T16:20:15.179Z,97739.50
2022-08-21T16:22:44.883Z,97744.94
2022-08-21T16:25:11.369Z,97740.63
2022-08-21T16:27:37.614Z,97738.25
2022-08-21T16:30:06.115Z,97733.91
2022-08-21T16:32:32.526Z,97733.41
2022-08-21T16:34:59.912Z,97733.22
2022-08-21T16:37:26.244Z,97730.84
2022-08-21T16:39:53.371Z,97732.25
2022-08-21T16:42:21.765Z,97725.03
2022-08-21T16:44:49.460Z,97725.66
2022-08-21T16:47:27.289Z,97721.63
2022-08-21T16:49:53.853Z,97716.03
2022-08-21T16:52:20.924Z,97722.84
2022-08-21T16:54:47.324Z,97718.06
2022-08-21T16:57:13.611Z,97714.84
2022-08-21T16:59:40.054Z,97720.56
2022-08-21T17:02:06.342Z,97713.84
2022-08-21T17:04:33.741Z,97722.28
2022-08-21T17:07:00.005Z,97715.56
2022-08-21T17:09:26.258Z,97713.47
2022-08-21T17:11:52.497Z,97721.09
2022-08-21T17:14:18.923Z,97710.06
2022-08-21T17:16:45.327Z,97716.09
2022-08-21T17:19:14.610Z,97712.09
2022-08-21T17:21:40.991Z,97705.72
2022-08-21T17:24:07.342Z,97707.91
2022-08-21T17:26:33.904Z,97703.41
2022-08-21T17:29:00.203Z,97706.72
2022-08-21T17:31:26.646Z,97711.94
2022-08-21T17:33:54.024Z,97710.13
2022-08-21T17:36:22.828Z,97699.91
2022-08-21T17:38:49.253Z,97705.13
2022-08-21T17:41:15.530Z,97706.81
2022-08-21T17:43:41.822Z,97703.41
2022-08-21T17:46:08.117Z,97703.50
2022-08-21T17:48:34.455Z,97707.09
2022-08-21T17:51:01.797Z,97702.63
2022-08-21T17:53:28.083Z,97709.41
2022-08-21T17:55:54.425Z,97705.72
2022-08-21T17:58:20.696Z,97710.41
2022-08-21T18:00:47.041Z,97711.81
2022-08-21T18:03:13.385Z,97708.13
2022-08-21T18:05:39.798Z,97712.50
2022-08-21T18:08:06.059Z,97714.19
2022-08-21T18:10:32.456Z,97722.09
2022-08-21T18:12:58.909Z,97717.59
2022-08-21T18:15:25.348Z,97723.09
2022-08-21T18:17:51.710Z,97716.94
2022-08-21T18:20:18.929Z,97723.16
2022-08-21T18:22:45.315Z,97726.72
2022-08-21T18:25:11.601Z,97722.22
2022-08-21T18:27:38.033Z,97729.31
2022-08-21T18:30:04.315Z,97726.69
2022-08-21T18:32:31.974Z,97731.38
2022-08-21T18:34:58.519Z,97740.06
2022-08-21T18:37:24.804Z,97734.78
2022-08-21T18:39:51.233Z,97733.75
2022-08-21T18:42:18.246Z,97733.31
2022-08-21T18:44:44.549Z,97734.78
2022-08-21T18:47:10.779Z,97746.25
2022-08-21T18:49:37.126Z,97754.16
2022-08-21T18:52:03.470Z,97755.91
2022-08-21T18:54:30.121Z,97758.69
2022-08-21T18:56:56.407Z,97762.81
2022-08-21T18:59:25.408Z,97763.19
2022-08-21T19:01:53.102Z,97764.34
2022-08-21T19:04:43.262Z,97770.09
2022-08-21T19:07:05.882Z,97769.63
2022-08-21T19:09:32.984Z,97774.56
2022-08-21T19:12:00.136Z,97774.09
2022-08-21T19:14:26.435Z,97774.72
2022-08-21T19:16:52.694Z,97780.19
2022-08-21T19:19:18.951Z,97789.09
2022-08-21T19:21:45.271Z,97795.34
2022-08-21T19:24:17.797Z,97796.50
2022-08-21T19:26:44.605Z,97798.16
2022-08-21T19:29:10.955Z,97793.13
2022-08-21T19:31:37.283Z,97792.06
2022-08-21T19:34:04.403Z,97799.38
2022-08-21T19:36:30.665Z,97796.75
2022-08-21T19:38:57.622Z,97796.28
2022-08-21T19:41:24.066Z,97795.78
2022-08-21T19:43:51.615Z,97806.06
2022-08-21T19:46:18.042Z,97795.91
2022-08-21T19:48:46.734Z,97801.88
2022-08-21T19:51:15.270Z,97809.16
2022-08-21T19:53:41.680Z,97800.34
2022-08-21T19:56:08.092Z,97806.28
2022-08-21T19:58:37.634Z,97803.63
2022-08-21T20:01:04.156Z,97811.16
2022-08-21T20:03:43.260Z,97807.97
2022-08-21T20:06:09.701Z,97814.69
2022-08-21T20:08:38.910Z,97813.66
2022-08-21T20:11:05.356Z,97819.59
2022-08-21T20:13:33.723Z,97814.53
2022-08-21T20:16:02.645Z,97816.19
2022-08-21T20:18:43.136Z,97822.63
2022-08-21T20:21:12.165Z,97821.06
2022-08-21T20:23:48.702Z,97823.78
2022-08-21T20:26:15.776Z,97823.53
2022-08-21T20:28:50.306Z,97820.84
2022-08-21T20:31:17.002Z,97823.81
2022-08-21T20:33:45.917Z,97827.56
2022-08-21T20:36:15.952Z,97825.97
2022-08-21T20:38:42.556Z,97835.66
2022-08-21T20:41:21.391Z,97829.19
2022-08-21T20:43:59.480Z,97824.41
2022-08-21T20:46:25.941Z,97832.78
2022-08-21T20:48:53.949Z,97834.66
2022-08-21T20:51:24.700Z,97830.63
2022-08-21T20:53:58.782Z,97833.34
2022-08-21T20:56:26.462Z,97839.25
2022-08-21T20:59:00.762Z,97845.19
2022-08-21T21:01:28.276Z,97844.91
2022-08-21T21:04:30.571Z,97853.25
2022-08-21T21:07:20.887Z,97854.59
2022-08-21T21:09:55.304Z,97849.78
2022-08-21T21:12:27.963Z,97851.66
2022-08-21T21:14:58.827Z,97849.19
2022-08-21T21:17:28.795Z,97850.81
2022-08-21T21:19:55.224Z,97844.91
2022-08-21T21:22:25.116Z,97846.53
2022-08-21T21:24:51.602Z,97846.56
2022-08-21T21:27:21.342Z,97857.53
2022-08-21T21:29:49.209Z,97857.56
2022-08-21T21:32:17.931Z,97857.00
2022-08-21T21:34:59.314Z,97854.06
2022-08-21T21:37:25.811Z,97861.34
2022-08-21T21:39:53.069Z,97865.34
2022-08-21T21:42:30.333Z,97869.13
2022-08-21T21:45:08.613Z,97866.16
2022-08-21T21:47:36.463Z,97878.75
2022-08-21T21:50:03.045Z,97876.34
2022-08-21T21:52:29.633Z,97876.63
2022-08-21T21:54:55.975Z,97872.84
2022-08-21T21:57:25.267Z,97869.63
2022-08-21T21:59:54.770Z,97861.31
2022-08-21T22:02:21.219Z,97872.31
2022-08-21T22:04:51.292Z,97872.03
2022-08-21T22:07:17.775Z,97867.75
2022-08-21T22:09:44.061Z,97872.03
2022-08-21T22:12:10.337Z,97870.69
2022-08-21T22:14:36.636Z,97872.81
2022-08-21T22:17:02.983Z,97873.38
2022-08-21T22:19:30.706Z,97872.81
2022-08-21T22:21:56.993Z,97869.59
2022-08-21T22:24:23.367Z,97874.41
2022-08-21T22:26:49.732Z,97878.16
2022-08-21T22:29:16.006Z,97873.31
2022-08-21T22:31:42.689Z,97863.69
2022-08-21T22:36:58.293Z,97862.03
2022-08-21T22:42:11.878Z,97855.06
2022-08-21T22:44:38.295Z,97861.50
2022-08-21T22:47:06.057Z,97859.34
2022-08-21T22:49:35.296Z,97872.22
2022-08-21T22:52:02.899Z,97868.44
2022-08-21T22:54:34.004Z,97866.84
2022-08-21T22:57:00.640Z,97870.28
2022-08-21T22:59:26.931Z,97862.25
2022-08-21T23:01:55.656Z,97866.00
2022-08-21T23:04:24.031Z,97859.28
2022-08-21T23:09:36.928Z,97863.59
2022-08-21T23:12:14.123Z,97860.34
2022-08-21T23:14:48.412Z,97856.03
2022-08-21T23:17:21.164Z,97859.25
2022-08-21T23:19:50.330Z,97860.34
2022-08-21T23:22:17.270Z,97860.56
2022-08-21T23:24:46.570Z,97857.38
2022-08-21T23:30:04.564Z,97852.25
2022-08-21T23:32:35.706Z,97854.66
2022-08-21T23:35:07.731Z,97852.50
2022-08-21T23:40:20.494Z,97851.66
2022-08-21T23:42:46.938Z,97850.06
2022-08-21T23:48:02.479Z,97851.59
2022-08-21T23:50:32.408Z,97845.72
2022-08-21T23:53:01.685Z,97847.84
2022-08-21T23:55:35.314Z,97852.91
2022-08-21T23:58:01.736Z,97848.06
